Time;durP1;ratioP1;P1;durP2;ratioP2;P2;SDS_P1;SDS_P2;PMS_P1;PMS_P2;Temp;Humidity;BMP_temperature;BMP_pressure;BME280_temperature;BME280_humidity;BME280_pressure;Samples;Min_cycle;Max_cycle;Signal;HPM_P1;HPM_P2
2021/12/10 00:01:08;;;;;;;89.00;39.85;;;3.80;99.90;;;;;;5068123;28;20075;-45
2021/12/10 00:03:50;;;;;;;99.82;42.50;;;3.80;99.90;;;;;;5068691;28;20036;-46
2021/12/10 00:06:18;;;;;;;99.15;40.50;;;3.80;99.90;;;;;;5068697;28;20072;-45
2021/12/10 00:08:48;;;;;;;96.50;40.47;;;4.90;99.90;;;;;;5068254;28;20390;-45
2021/12/10 00:11:29;;;;;;;85.53;41.17;;;4.90;99.90;;;;;;5068807;28;20040;-45
2021/12/10 00:13:56;;;;;;;89.18;40.72;;;3.50;99.90;;;;;;5068568;28;20048;-44
2021/12/10 00:16:23;;;;;;;80.07;38.05;;;3.80;99.90;;;;;;5068705;28;20071;-44
2021/12/10 00:19:09;;;;;;;94.47;40.80;;;4.50;99.90;;;;;;5068142;28;20402;-45
2021/12/10 00:21:35;;;;;;;79.32;39.60;;;3.80;99.90;;;;;;5067995;28;20067;-45
2021/12/10 00:24:02;;;;;;;87.72;42.10;;;3.80;99.90;;;;;;5068010;28;20056;-45
2021/12/10 00:26:28;;;;;;;86.65;41.30;;;2.20;99.90;;;;;;5068176;28;20048;-46
2021/12/10 00:29:01;;;;;;;98.28;44.13;;;3.80;99.90;;;;;;5068034;28;20036;-46
2021/12/10 00:34:10;;;;;;;91.70;41.97;;;3.90;99.90;;;;;;5068328;28;20572;-45
2021/12/10 00:36:37;;;;;;;95.88;42.67;;;3.90;99.90;;;;;;5068308;28;20048;-46
2021/12/10 00:39:32;;;;;;;93.82;43.50;;;3.90;99.90;;;;;;5067944;28;20049;-45
2021/12/10 00:42:00;;;;;;;89.70;41.58;;;3.90;99.90;;;;;;5046601;28;20207;-45
2021/12/10 00:44:26;;;;;;;90.55;41.67;;;3.90;99.90;;;;;;5068007;28;20032;-45
2021/12/10 00:46:52;;;;;;;90.25;41.35;;;3.90;99.90;;;;;;5067350;28;20037;-44
2021/12/10 00:49:18;;;;;;;98.65;42.58;;;3.90;99.90;;;;;;5067938;28;20083;-46
2021/12/10 00:51:44;;;;;;;80.97;40.65;;;3.60;99.90;;;;;;5067715;28;20048;-44
2021/12/10 00:54:12;;;;;;;95.13;42.70;;;3.90;99.90;;;;;;5070831;28;20076;-45
2021/12/10 00:56:41;;;;;;;87.65;40.67;;;3.90;99.90;;;;;;5071707;28;20700;-46
2021/12/10 00:59:08;;;;;;;84.40;38.92;;;3.90;99.90;;;;;;5071739;28;20052;-45
2021/12/10 01:01:34;;;;;;;78.03;38.40;;;3.90;99.90;;;;;;5070096;28;20044;-44
2021/12/10 01:04:08;;;;;;;94.65;39.95;;;3.80;99.90;;;;;;5071163;28;20047;-46
2021/12/10 01:06:34;;;;;;;94.68;41.08;;;3.90;99.90;;;;;;5071672;28;20497;-45
2021/12/10 01:09:11;;;;;;;85.78;40.67;;;3.90;99.90;;;;;;5070965;28;20050;-45
2021/12/10 01:11:41;;;;;;;99.00;40.05;;;3.90;99.90;;;;;;5071626;28;20046;-46
2021/12/10 01:14:19;;;;;;;75.32;35.17;;;3.90;99.90;;;;;;5071745;28;20077;-46
2021/12/10 01:25:09;;;;;;;74.55;37.67;;;4.40;99.90;;;;;;5070840;28;20628;-44
2021/12/10 01:27:42;;;;;;;69.20;37.88;;;3.90;99.90;;;;;;5071016;28;20565;-45
2021/12/10 01:30:22;;;;;;;72.45;37.33;;;4.00;99.90;;;;;;5071313;28;20109;-45
2021/12/10 01:32:52;;;;;;;65.25;36.58;;;4.00;99.90;;;;;;5070630;28;20084;-46
2021/12/10 01:35:22;;;;;;;71.55;36.58;;;4.00;99.90;;;;;;5070721;28;20041;-46
2021/12/10 01:37:53;;;;;;;79.15;37.42;;;3.90;99.90;;;;;;5070434;28;20043;-46
2021/12/10 01:40:21;;;;;;;72.88;38.50;;;4.00;99.90;;;;;;5071005;28;20044;-46
2021/12/10 01:42:51;;;;;;;78.95;37.70;;;3.90;99.90;;;;;;5071321;28;20115;-46
2021/12/10 01:45:26;;;;;;;67.47;34.50;;;4.00;99.90;;;;;;5070825;28;20041;-45
2021/12/10 01:48:04;;;;;;;67.72;37.70;;;4.00;99.90;;;;;;5070279;28;20044;-50
2021/12/10 01:50:35;;;;;;;73.97;36.65;;;3.90;99.90;;;;;;5070909;28;20047;-45
2021/12/10 01:53:06;;;;;;;68.15;35.17;;;3.90;99.90;;;;;;5070215;28;20070;-47
2021/12/10 01:55:34;;;;;;;73.85;37.08;;;3.90;99.90;;;;;;5070330;28;20540;-46
2021/12/10 01:58:00;;;;;;;78.22;38.42;;;3.80;99.90;;;;;;5070242;28;20036;-45
2021/12/10 02:00:30;;;;;;;71.68;35.72;;;3.80;99.90;;;;;;5069275;28;20103;-46
2021/12/10 02:02:57;;;;;;;67.97;34.70;;;3.80;99.90;;;;;;5070003;28;20052;-45
2021/12/10 02:05:22;;;;;;;70.68;35.42;;;3.80;99.90;;;;;;5070386;28;20398;-46
2021/12/10 02:07:49;;;;;;;68.10;34.33;;;3.80;99.90;;;;;;5070811;28;20060;-45
2021/12/10 02:10:17;;;;;;;65.60;33.35;;;3.80;99.90;;;;;;5070221;28;20075;-45
2021/12/10 02:12:43;;;;;;;64.75;34.25;;;3.80;99.90;;;;;;5070319;28;20128;-44
2021/12/10 02:15:11;;;;;;;60.55;33.92;;;3.80;99.90;;;;;;5070343;28;20048;-46
2021/12/10 02:17:40;;;;;;;54.35;31.58;;;3.70;99.90;;;;;;5069978;28;20110;-46
2021/12/10 02:20:38;;;;;;;61.78;32.17;;;3.60;99.90;;;;;;5070228;28;20054;-45
2021/12/10 02:23:06;;;;;;;61.42;32.50;;;3.80;99.90;;;;;;5051698;28;20474;-45
2021/12/10 02:25:36;;;;;;;63.15;30.30;;;3.80;99.90;;;;;;5070258;28;20036;-46
2021/12/10 02:28:03;;;;;;;58.60;29.25;;;3.70;99.90;;;;;;5069869;28;20094;-45
2021/12/10 02:30:29;;;;;;;49.70;27.52;;;3.80;99.90;;;;;;5069765;28;20047;-46
2021/12/10 02:32:56;;;;;;;55.20;27.23;;;3.80;99.90;;;;;;5069777;28;20055;-45
2021/12/10 02:35:22;;;;;;;54.78;27.92;;;3.70;99.90;;;;;;5069809;28;20543;-45
2021/12/10 02:37:48;;;;;;;44.45;26.00;;;3.70;99.90;;;;;;5070300;28;20127;-47
2021/12/10 02:40:18;;;;;;;56.50;28.88;;;3.70;99.90;;;;;;5069871;28;20068;-44
2021/12/10 02:42:45;;;;;;;54.03;28.27;;;4.00;99.90;;;;;;5069664;28;20072;-45
2021/12/10 02:45:15;;;;;;;52.40;29.42;;;3.70;99.90;;;;;;5069302;28;20072;-46
2021/12/10 02:47:41;;;;;;;51.55;26.38;;;3.70;99.90;;;;;;5069889;28;20074;-45
2021/12/10 02:50:09;;;;;;;50.40;26.02;;;3.70;99.90;;;;;;5069664;28;20040;-45
2021/12/10 02:52:35;;;;;;;45.17;24.00;;;3.70;99.90;;;;;;5069703;28;20127;-45
2021/12/10 02:55:00;;;;;;;40.80;23.85;;;3.70;99.90;;;;;;5064320;28;20135;-46
2021/12/10 02:57:27;;;;;;;54.67;26.35;;;3.50;99.90;;;;;;5069524;28;20040;-44
2021/12/10 02:59:54;;;;;;;43.08;23.92;;;4.10;99.90;;;;;;5069252;28;20044;-46
2021/12/10 03:02:23;;;;;;;43.60;24.10;;;3.70;99.90;;;;;;5069255;28;20044;-45
2021/12/10 03:04:50;;;;;;;47.85;24.80;;;3.70;99.90;;;;;;5069379;28;20086;-45
2021/12/10 03:07:18;;;;;;;43.15;22.90;;;3.60;99.90;;;;;;5069470;28;20036;-45
2021/12/10 03:09:48;;;;;;;38.83;21.73;;;3.70;99.90;;;;;;5069194;28;20054;-46
2021/12/10 03:12:15;;;;;;;39.42;22.40;;;3.70;99.90;;;;;;5068954;28;20048;-45
2021/12/10 03:14:45;;;;;;;41.88;22.80;;;3.70;99.90;;;;;;5069119;28;20056;-45
2021/12/10 03:17:15;;;;;;;45.25;22.52;;;3.60;99.90;;;;;;5068921;28;20118;-46
2021/12/10 03:19:42;;;;;;;39.97;23.10;;;3.70;99.90;;;;;;5050651;28;20055;-45
2021/12/10 03:22:08;;;;;;;44.95;24.02;;;3.70;99.90;;;;;;5068699;28;20474;-45
2021/12/10 03:24:34;;;;;;;42.78;24.27;;;3.70;99.90;;;;;;5069400;28;20042;-45
2021/12/10 03:27:04;;;;;;;38.47;22.15;;;3.70;99.90;;;;;;5068984;28;20116;-45
2021/12/10 03:29:33;;;;;;;47.50;25.25;;;3.70;99.90;;;;;;5068886;28;20398;-46
2021/12/10 03:32:01;;;;;;;39.10;22.65;;;3.70;99.90;;;;;;5068624;28;20201;-46
2021/12/10 03:34:27;;;;;;;49.28;24.13;;;3.40;99.90;;;;;;5068856;28;20049;-45
2021/12/10 03:36:54;;;;;;;41.72;22.67;;;3.70;99.90;;;;;;5069064;28;20045;-45
2021/12/10 03:39:23;;;;;;;43.92;24.80;;;3.70;99.90;;;;;;5068237;28;20465;-45
2021/12/10 03:41:51;;;;;;;46.55;24.48;;;3.70;99.90;;;;;;5068910;28;20040;-46
2021/12/10 03:44:33;;;;;;;42.85;24.30;;;3.50;99.90;;;;;;5068777;28;20478;-45
2021/12/10 03:46:59;;;;;;;42.08;24.60;;;3.70;99.90;;;;;;5068985;28;20094;-46
2021/12/10 03:49:26;;;;;;;50.33;26.80;;;3.70;99.90;;;;;;5068462;28;20118;-46
2021/12/10 03:51:52;;;;;;;48.72;26.63;;;3.70;99.90;;;;;;5068831;28;20037;-44
2021/12/10 03:54:18;;;;;;;52.40;27.17;;;3.50;99.90;;;;;;5050435;28;20040;-45
2021/12/10 03:56:46;;;;;;;51.38;27.45;;;3.70;99.90;;;;;;5068360;28;20363;-46
2021/12/10 03:59:14;;;;;;;50.17;28.85;;;3.70;99.90;;;;;;5068438;28;20044;-45
2021/12/10 04:01:43;;;;;;;47.38;29.23;;;3.70;99.90;;;;;;5067287;28;20107;-45
2021/12/10 04:04:29;;;;;;;43.90;26.08;;;3.60;99.90;;;;;;5068821;28;20048;-45
2021/12/10 04:06:56;;;;;;;46.05;28.77;;;3.80;99.90;;;;;;5068478;28;20786;-45
2021/12/10 04:09:22;;;;;;;42.88;25.70;;;3.70;99.90;;;;;;5067964;28;20084;-45
2021/12/10 04:11:49;;;;;;;50.88;31.60;;;3.40;99.90;;;;;;5068390;28;20143;-45
2021/12/10 04:14:15;;;;;;;46.40;29.13;;;3.70;99.90;;;;;;5068227;28;20044;-46
2021/12/10 04:16:41;;;;;;;44.90;29.25;;;3.70;99.90;;;;;;5068404;28;20110;-45
2021/12/10 04:19:10;;;;;;;48.50;29.58;;;3.50;99.90;;;;;;5050223;28;20036;-46
2021/12/10 04:21:40;;;;;;;49.15;32.15;;;3.70;99.90;;;;;;5068739;28;20155;-45
2021/12/10 04:24:14;;;;;;;55.72;31.23;;;3.70;99.90;;;;;;5068313;28;20350;-45
2021/12/10 04:26:40;;;;;;;50.00;29.45;;;3.60;99.90;;;;;;5068356;28;20044;-45
2021/12/10 04:29:06;;;;;;;53.00;32.00;;;3.60;99.90;;;;;;5071617;28;20536;-45
2021/12/10 04:31:32;;;;;;;50.72;31.27;;;3.60;99.90;;;;;;5072171;28;20052;-45
2021/12/10 04:33:58;;;;;;;46.10;28.50;;;3.60;99.90;;;;;;5072392;28;20509;-45
2021/12/10 04:36:24;;;;;;;41.75;29.63;;;4.90;99.90;;;;;;5072274;28;20047;-45
2021/12/10 04:38:50;;;;;;;51.10;30.10;;;3.40;99.90;;;;;;5072130;28;20053;-44
2021/12/10 04:41:15;;;;;;;51.60;31.80;;;3.30;99.90;;;;;;5072053;28;20051;-46
2021/12/10 04:43:43;;;;;;;54.92;32.70;;;3.30;99.90;;;;;;5072495;28;20047;-46
2021/12/10 04:46:09;;;;;;;55.13;31.92;;;3.20;99.90;;;;;;5072016;28;20620;-46
2021/12/10 04:48:57;;;;;;;49.92;31.25;;;3.20;99.90;;;;;;5071849;28;20124;-46
2021/12/10 04:51:28;;;;;;;46.90;29.15;;;3.10;99.90;;;;;;5072020;28;20036;-44
2021/12/10 04:53:56;;;;;;;60.60;31.02;;;3.00;99.90;;;;;;5072264;28;20040;-45
2021/12/10 04:56:22;;;;;;;51.22;31.15;;;3.00;99.90;;;;;;5071788;28;20048;-44
2021/12/10 04:58:48;;;;;;;54.75;32.10;;;2.90;99.90;;;;;;5072058;28;20542;-44
2021/12/10 05:01:14;;;;;;;51.15;29.85;;;2.90;99.90;;;;;;5070643;28;20052;-45
2021/12/10 05:03:40;;;;;;;58.17;34.10;;;2.80;99.90;;;;;;5071527;28;20040;-44
2021/12/10 05:06:06;;;;;;;59.00;35.15;;;2.80;99.90;;;;;;5071532;28;20406;-44
2021/12/10 05:08:33;;;;;;;63.40;36.80;;;2.80;99.90;;;;;;5071313;28;20094;-46
2021/12/10 05:11:00;;;;;;;59.50;35.30;;;2.70;99.90;;;;;;5071220;28;20509;-44
2021/12/10 05:13:27;;;;;;;54.42;31.38;;;2.60;99.90;;;;;;5071249;28;20051;-44
2021/12/10 05:15:58;;;;;;;63.65;34.50;;;2.60;99.90;;;;;;5071284;28;20076;-46
2021/12/10 05:18:26;;;;;;;58.45;35.28;;;2.50;99.90;;;;;;5071523;28;20489;-44
2021/12/10 05:20:53;;;;;;;60.47;35.70;;;2.50;99.90;;;;;;5071534;28;20036;-45
2021/12/10 05:23:20;;;;;;;59.58;33.72;;;2.40;99.90;;;;;;5071507;28;20045;-45
2021/12/10 05:25:46;;;;;;;56.72;33.45;;;2.10;99.90;;;;;;5049475;28;20643;-47
2021/12/10 05:28:13;;;;;;;51.53;32.90;;;2.30;99.90;;;;;;5049605;28;20056;-48
2021/12/10 05:30:39;;;;;;;51.70;30.45;;;2.30;99.90;;;;;;5054402;28;20503;-48
2021/12/10 05:33:06;;;;;;;53.55;31.38;;;2.30;99.90;;;;;;5057778;28;20047;-55
2021/12/10 05:35:33;;;;;;;53.20;32.22;;;2.40;99.90;;;;;;5043689;28;20119;-55
2021/12/10 05:37:59;;;;;;;54.83;31.75;;;2.40;99.90;;;;;;5060502;28;20048;-53
2021/12/10 05:40:26;;;;;;;54.65;32.50;;;2.30;99.90;;;;;;5057438;28;20044;-51
2021/12/10 05:42:52;;;;;;;56.03;31.88;;;2.30;99.90;;;;;;5059928;28;20041;-50
2021/12/10 05:45:20;;;;;;;50.85;30.05;;;2.30;99.90;;;;;;5062536;28;20037;-58
2021/12/10 05:47:46;;;;;;;51.63;30.90;;;2.20;99.90;;;;;;5060833;28;20028;-47
2021/12/10 05:50:16;;;;;;;59.70;33.40;;;2.10;99.90;;;;;;5060457;28;20044;-48
2021/12/10 05:52:42;;;;;;;61.92;32.80;;;2.10;99.90;;;;;;5058867;28;20040;-46
2021/12/10 05:55:09;;;;;;;53.35;32.95;;;2.00;99.90;;;;;;5059050;28;20066;-48
2021/12/10 05:57:35;;;;;;;58.78;33.10;;;2.00;99.90;;;;;;5059705;28;20041;-46
2021/12/10 06:00:00;;;;;;;52.55;30.48;;;1.90;99.90;;;;;;5062223;28;20048;-45
2021/12/10 06:02:26;;;;;;;54.53;31.75;;;1.80;99.90;;;;;;5061166;28;20562;-47
2021/12/10 06:04:52;;;;;;;48.10;28.92;;;1.80;99.90;;;;;;5061374;28;20048;-47
2021/12/10 06:07:18;;;;;;;50.88;29.45;;;1.60;99.90;;;;;;5059857;28;20040;-50
2021/12/10 06:09:44;;;;;;;48.72;27.52;;;1.60;99.90;;;;;;5059397;28;20432;-46
2021/12/10 06:12:10;;;;;;;54.40;28.58;;;1.60;99.90;;;;;;5062640;28;20032;-58
2021/12/10 06:14:36;;;;;;;42.80;26.02;;;1.70;99.90;;;;;;5044104;28;20121;-55
2021/12/10 06:17:03;;;;;;;54.28;28.50;;;1.30;99.90;;;;;;5060332;28;20025;-54
2021/12/10 06:19:28;;;;;;;50.25;26.35;;;1.60;99.90;;;;;;5060145;28;20037;-57
2021/12/10 06:21:54;;;;;;;55.78;29.10;;;1.50;99.90;;;;;;5060737;28;20775;-56
2021/12/10 06:24:20;;;;;;;54.35;28.67;;;1.50;99.90;;;;;;5058263;28;20043;-53
2021/12/10 06:26:46;;;;;;;55.92;28.45;;;1.50;99.90;;;;;;5048069;28;20402;-56
2021/12/10 06:29:12;;;;;;;49.88;26.45;;;1.30;99.90;;;;;;5057928;28;20047;-56
2021/12/10 06:31:39;;;;;;;49.28;24.55;;;3.20;99.90;;;;;;5059963;28;20084;-55
2021/12/10 06:34:05;;;;;;;48.85;24.75;;;2.20;99.90;;;;;;5059444;28;20495;-57
2021/12/10 06:36:30;;;;;;;50.58;26.80;;;1.30;99.90;;;;;;5059927;28;20035;-55
2021/12/10 06:38:57;;;;;;;45.15;23.90;;;1.20;99.90;;;;;;5061053;28;20572;-55
2021/12/10 06:41:23;;;;;;;43.35;23.55;;;1.10;99.90;;;;;;5041572;28;20457;-54
2021/12/10 06:43:49;;;;;;;39.92;21.00;;;1.20;99.90;;;;;;5057847;28;20111;-54
2021/12/10 06:46:16;;;;;;;59.15;24.55;;;1.20;99.90;;;;;;5053473;28;20033;-57
2021/12/10 06:48:42;;;;;;;42.03;22.23;;;1.10;99.90;;;;;;5004912;28;20139;-54
2021/12/10 06:51:13;;;;;;;50.30;24.67;;;1.00;99.90;;;;;;5049428;28;20040;-54
2021/12/10 06:53:40;;;;;;;42.33;22.42;;;1.10;99.90;;;;;;5049635;28;20398;-54
2021/12/10 06:56:07;;;;;;;45.80;24.05;;;1.00;99.90;;;;;;5059446;28;20387;-55
2021/12/10 06:58:34;;;;;;;37.47;22.42;;;1.00;99.90;;;;;;5049274;28;20118;-53
2021/12/10 07:01:23;;;;;;;43.92;22.05;;;1.00;99.90;;;;;;5068640;28;20040;-53
2021/12/10 07:03:51;;;;;;;39.65;19.70;;;1.00;99.90;;;;;;5051641;28;20048;-56
2021/12/10 07:06:18;;;;;;;41.10;21.55;;;0.90;99.90;;;;;;5063533;28;20406;-54
2021/12/10 07:08:46;;;;;;;46.50;21.40;;;0.90;99.90;;;;;;5069726;28;20045;-55
2021/12/10 07:11:15;;;;;;;44.15;22.30;;;0.80;99.90;;;;;;5058321;28;20142;-54
2021/12/10 07:13:44;;;;;;;44.17;21.52;;;0.70;99.90;;;;;;5010982;28;20483;-56
2021/12/10 07:16:10;;;;;;;36.22;20.50;;;-0.20;99.90;;;;;;5013592;28;20037;-54
2021/12/10 07:18:37;;;;;;;41.72;21.48;;;1.30;99.90;;;;;;5064587;28;20449;-55
2021/12/10 07:21:04;;;;;;;41.10;20.58;;;0.80;99.90;;;;;;5049633;28;20144;-55
2021/12/10 07:23:30;;;;;;;44.00;21.77;;;0.80;99.90;;;;;;5049657;28;20182;-55
2021/12/10 07:25:56;;;;;;;37.85;20.52;;;0.80;99.90;;;;;;5058409;28;20681;-53
2021/12/10 07:28:22;;;;;;;40.75;23.15;;;0.80;99.90;;;;;;5057979;28;20093;-55
2021/12/10 07:30:49;;;;;;;43.00;20.63;;;0.80;99.90;;;;;;5046421;28;20084;-54
2021/12/10 07:33:16;;;;;;;40.13;19.08;;;0.80;99.90;;;;;;5048742;28;20088;-55
2021/12/10 07:35:44;;;;;;;46.08;20.35;;;0.80;99.90;;;;;;5048470;28;20048;-53
2021/12/10 07:38:09;;;;;;;42.53;21.83;;;0.80;99.90;;;;;;5062456;28;20543;-55
2021/12/10 07:40:37;;;;;;;42.92;20.75;;;0.80;99.90;;;;;;5049633;28;20041;-55
2021/12/10 07:43:05;;;;;;;33.58;19.80;;;0.80;99.90;;;;;;5068308;28;20043;-56
2021/12/10 07:45:31;;;;;;;38.08;20.77;;;0.80;99.90;;;;;;5068524;28;20041;-55
2021/12/10 07:47:59;;;;;;;39.65;20.42;;;0.80;99.90;;;;;;5068998;28;20040;-56
2021/12/10 07:50:30;;;;;;;38.53;19.02;;;0.40;99.90;;;;;;5048798;28;20045;-54
2021/12/10 07:52:56;;;;;;;36.85;18.60;;;0.80;99.90;;;;;;5048881;28;20052;-55
2021/12/10 07:55:25;;;;;;;36.80;19.02;;;0.70;99.90;;;;;;5053519;28;20044;-55
2021/12/10 07:57:52;;;;;;;34.33;18.88;;;0.80;99.90;;;;;;5068575;28;20049;-56
2021/12/10 08:00:21;;;;;;;34.05;19.48;;;0.80;99.90;;;;;;5050764;28;20040;-54
2021/12/10 08:02:47;;;;;;;33.42;16.08;;;0.80;99.90;;;;;;5068226;28;20052;-57
2021/12/10 08:05:15;;;;;;;32.80;17.63;;;0.80;99.90;;;;;;5068882;28;20182;-56
2021/12/10 08:07:41;;;;;;;36.15;18.58;;;0.80;99.90;;;;;;5068609;28;20410;-57
2021/12/10 08:10:11;;;;;;;32.00;19.15;;;0.80;99.90;;;;;;5068215;28;20044;-56
2021/12/10 08:12:37;;;;;;;33.10;19.08;;;0.80;99.90;;;;;;5068713;28;20067;-57
2021/12/10 08:15:05;;;;;;;37.47;18.05;;;0.80;99.90;;;;;;5068517;28;20478;-57
2021/12/10 08:17:31;;;;;;;29.10;16.98;;;0.80;99.90;;;;;;5030492;28;20394;-57
2021/12/10 08:19:58;;;;;;;29.55;17.15;;;0.80;99.90;;;;;;5030531;28;20037;-57
2021/12/10 08:22:24;;;;;;;30.98;18.20;;;0.90;99.90;;;;;;5048421;28;20045;-56
2021/12/10 08:24:49;;;;;;;32.35;18.15;;;0.90;99.90;;;;;;5053634;28;20528;-57
2021/12/10 08:27:15;;;;;;;32.53;18.73;;;0.90;99.90;;;;;;5067534;28;20098;-56
2021/12/10 08:29:44;;;;;;;30.63;17.35;;;0.80;99.90;;;;;;5068094;28;20478;-55
2021/12/10 08:32:13;;;;;;;29.60;17.15;;;0.80;99.90;;;;;;5053851;28;20581;-54
2021/12/10 08:34:39;;;;;;;36.10;18.77;;;0.90;99.90;;;;;;5048436;28;20057;-53
2021/12/10 08:37:06;;;;;;;27.23;15.70;;;0.90;99.90;;;;;;5047490;28;20048;-52
2021/12/10 08:39:31;;;;;;;31.10;16.15;;;0.80;99.90;;;;;;5047985;28;20041;-56
2021/12/10 08:41:58;;;;;;;32.90;15.57;;;1.00;99.90;;;;;;5064482;28;20095;-56
2021/12/10 08:44:26;;;;;;;33.08;16.75;;;1.10;99.90;;;;;;5068426;28;20048;-56
2021/12/10 08:46:52;;;;;;;30.60;16.58;;;1.10;99.90;;;;;;5067799;28;20049;-54
2021/12/10 08:49:18;;;;;;;28.55;16.13;;;1.00;99.90;;;;;;5068437;28;20040;-55
2021/12/10 08:51:52;;;;;;;33.95;16.63;;;1.20;99.90;;;;;;5067923;28;20039;-55
2021/12/10 08:54:20;;;;;;;28.92;16.08;;;1.20;99.90;;;;;;5068047;28;20201;-55
2021/12/10 08:56:49;;;;;;;27.65;16.15;;;1.20;99.90;;;;;;5051082;28;20048;-56
2021/12/10 08:59:16;;;;;;;26.23;15.70;;;1.40;99.90;;;;;;5048013;28;20045;-55
2021/12/10 09:01:46;;;;;;;24.83;14.25;;;1.20;99.90;;;;;;5065535;28;20086;-55
2021/12/10 09:04:13;;;;;;;27.35;15.95;;;1.50;99.90;;;;;;5067822;28;20044;-56
2021/12/10 09:06:42;;;;;;;27.70;14.45;;;1.50;99.90;;;;;;5049853;28;20123;-55
2021/12/10 09:09:12;;;;;;;26.20;14.90;;;1.60;99.90;;;;;;5067982;28;20045;-55
2021/12/10 09:11:41;;;;;;;23.48;14.10;;;1.60;99.90;;;;;;5044469;28;20052;-54
2021/12/10 09:14:08;;;;;;;30.95;15.32;;;2.40;99.90;;;;;;5049086;28;20041;-54
2021/12/10 09:16:36;;;;;;;28.25;13.20;;;1.60;99.90;;;;;;5051744;28;20053;-55
2021/12/10 09:19:05;;;;;;;19.10;13.65;;;2.00;99.90;;;;;;5051426;28;20081;-55
2021/12/10 09:21:33;;;;;;;27.23;14.25;;;2.00;99.90;;;;;;5051274;28;20427;-55
2021/12/10 09:24:04;;;;;;;22.95;13.77;;;2.40;99.90;;;;;;5051157;28;20098;-56
2021/12/10 09:26:33;;;;;;;22.42;13.23;;;2.60;99.90;;;;;;5052473;28;20044;-55
2021/12/10 09:29:03;;;;;;;23.70;12.77;;;2.70;99.90;;;;;;5051885;28;20041;-56
2021/12/10 09:31:29;;;;;;;21.70;12.88;;;2.60;99.90;;;;;;5051140;28;20057;-55
2021/12/10 09:33:56;;;;;;;22.63;13.88;;;2.60;99.90;;;;;;5050941;28;20411;-56
2021/12/10 09:36:24;;;;;;;18.60;11.93;;;2.50;99.90;;;;;;5051386;28;20037;-55
2021/12/10 09:38:50;;;;;;;22.67;13.65;;;2.40;99.90;;;;;;5051107;28;20041;-56
2021/12/10 09:41:17;;;;;;;20.00;13.18;;;2.50;99.90;;;;;;5037984;28;20525;-55
2021/12/10 09:43:44;;;;;;;21.60;13.10;;;2.50;99.90;;;;;;5070873;28;20120;-56
2021/12/10 09:46:11;;;;;;;18.33;11.88;;;2.50;99.90;;;;;;5070902;28;20147;-56
2021/12/10 09:48:37;;;;;;;25.40;12.30;;;2.50;99.90;;;;;;5070725;28;20549;-56
2021/12/10 09:51:17;;;;;;;16.92;10.85;;;2.60;99.90;;;;;;5070542;28;20045;-55
2021/12/10 09:53:48;;;;;;;18.05;10.02;;;2.60;99.90;;;;;;5071141;28;20044;-56
2021/12/10 09:56:16;;;;;;;15.85;10.68;;;2.40;99.90;;;;;;5069203;28;20040;-56
2021/12/10 09:58:42;;;;;;;20.55;12.18;;;2.70;99.90;;;;;;5050144;28;20106;-55
2021/12/10 10:01:14;;;;;;;18.90;10.68;;;2.70;99.90;;;;;;5063106;28;20036;-55
2021/12/10 10:03:43;;;;;;;17.02;9.77;;;2.80;99.90;;;;;;5070169;28;20040;-56
2021/12/10 10:06:11;;;;;;;18.08;10.63;;;2.90;99.90;;;;;;5050628;28;20043;-55
2021/12/10 10:08:38;;;;;;;17.50;10.48;;;2.90;99.90;;;;;;5050788;28;20048;-54
2021/12/10 10:11:10;;;;;;;19.23;9.07;;;3.00;99.90;;;;;;5059796;28;20139;-55
2021/12/10 10:13:38;;;;;;;;;;;3.00;99.90;;;;;;5070928;28;20517;-55
2021/12/10 10:16:04;;;;;;;17.10;10.23;;;3.00;99.90;;;;;;5067903;28;20443;-56
2021/12/10 10:18:33;;;;;;;16.17;9.55;;;3.10;99.90;;;;;;5070236;28;20479;-56
2021/12/10 10:21:05;;;;;;;16.95;9.77;;;3.10;99.90;;;;;;5061221;28;20037;-56
2021/12/10 10:23:31;;;;;;;;;;;3.10;99.90;;;;;;5050510;28;20091;-54
2021/12/10 10:26:06;;;;;;;13.48;8.57;;;3.40;99.90;;;;;;5054461;28;19964;-56
2021/12/10 10:28:32;;;;;;;13.60;9.57;;;3.60;99.90;;;;;;5050221;28;20562;-55
2021/12/10 10:31:05;;;;;;;14.52;9.68;;;3.80;99.90;;;;;;5063460;28;20131;-58
2021/12/10 10:33:34;;;;;;;12.32;6.97;;;4.00;99.90;;;;;;5070689;28;20049;-55
2021/12/10 10:36:05;;;;;;;13.75;8.55;;;4.00;99.90;;;;;;5070338;28;20036;-56
2021/12/10 10:38:31;;;;;;;13.45;8.45;;;5.10;99.90;;;;;;5055518;28;20474;-55
2021/12/10 10:41:03;;;;;;;11.27;6.97;;;3.90;99.90;;;;;;5052635;28;20553;-56
2021/12/10 10:43:29;;;;;;;13.50;7.90;;;3.70;99.90;;;;;;5032916;28;20055;-56
2021/12/10 10:45:56;;;;;;;20.13;8.90;;;3.50;99.90;;;;;;5050867;28;20049;-56
2021/12/10 10:48:22;;;;;;;14.00;8.25;;;3.50;99.90;;;;;;5050569;28;20051;-56
2021/12/10 10:50:58;;;;;;;14.80;8.23;;;3.60;99.90;;;;;;5050601;28;20487;-56
2021/12/10 10:53:28;;;;;;;14.88;7.63;;;3.50;99.90;;;;;;5050032;28;20033;-56
2021/12/10 10:56:07;;;;;;;12.18;7.18;;;3.20;99.90;;;;;;5056158;28;20040;-56
2021/12/10 10:58:36;;;;;;;15.68;8.27;;;3.40;99.90;;;;;;5055860;28;20049;-56
2021/12/10 11:01:20;;;;;;;12.70;7.13;;;3.40;99.90;;;;;;5065418;28;20394;-56
2021/12/10 11:04:02;;;;;;;10.05;6.65;;;3.30;99.90;;;;;;5069323;28;20055;-57
2021/12/10 11:06:36;;;;;;;12.65;7.68;;;3.40;99.90;;;;;;5032090;28;20056;-56
2021/12/10 11:09:18;;;;;;;11.32;6.50;;;3.30;99.90;;;;;;5069348;28;20056;-56
2021/12/10 11:12:02;;;;;;;11.13;6.93;;;3.30;99.90;;;;;;5068113;28;20482;-56
2021/12/10 11:14:38;;;;;;;13.43;6.63;;;3.30;99.90;;;;;;5057245;28;20041;-55
2021/12/10 11:17:11;;;;;;;12.80;7.72;;;3.70;99.90;;;;;;5069449;28;20124;-56
2021/12/10 11:19:37;;;;;;;11.27;6.40;;;3.30;99.90;;;;;;5069270;28;20131;-56
2021/12/10 11:22:12;;;;;;;11.00;6.18;;;3.00;99.90;;;;;;5066275;28;20044;-56
2021/12/10 11:24:44;;;;;;;18.05;7.13;;;3.40;99.90;;;;;;5049333;28;20203;-56
2021/12/10 11:27:20;;;;;;;11.13;6.38;;;3.40;99.90;;;;;;5066360;28;20059;-56
2021/12/10 11:30:02;;;;;;;11.13;6.20;;;3.40;99.90;;;;;;5059923;28;20040;-56
2021/12/10 11:32:36;;;;;;;14.73;6.28;;;3.40;99.90;;;;;;5046422;28;20061;-56
2021/12/10 11:35:12;;;;;;;11.23;5.18;;;3.50;99.90;;;;;;5057321;28;20119;-56
2021/12/10 11:37:59;;;;;;;12.60;6.05;;;3.40;99.90;;;;;;5056779;28;20036;-55
2021/12/10 11:40:40;;;;;;;12.35;6.68;;;3.50;99.90;;;;;;5050561;28;20047;-56
2021/12/10 11:46:03;;;;;;;10.73;5.95;;;3.50;99.90;;;;;;5040834;28;20056;-56
2021/12/10 11:48:31;;;;;;;10.60;6.32;;;3.50;99.90;;;;;;5048508;28;20495;-55
2021/12/10 11:51:00;;;;;;;12.43;5.70;;;3.30;99.90;;;;;;5049614;28;20041;-56
2021/12/10 11:53:45;;;;;;;11.13;5.82;;;3.50;99.90;;;;;;5063514;28;20047;-56
2021/12/10 11:56:41;;;;;;;10.90;5.32;;;3.30;99.90;;;;;;5056801;28;20099;-56
2021/12/10 11:59:14;;;;;;;10.75;5.93;;;3.60;99.90;;;;;;5059304;28;20045;-54
2021/12/10 12:01:53;;;;;;;11.13;5.85;;;3.60;99.90;;;;;;5062474;28;20048;-55
2021/12/10 12:04:24;;;;;;;11.82;5.75;;;3.60;99.90;;;;;;5051334;28;20048;-54
2021/12/10 12:07:26;;;;;;;11.48;6.18;;;3.60;99.90;;;;;;5065254;28;20120;-56
2021/12/10 12:09:57;;;;;;;13.68;6.35;;;3.60;99.90;;;;;;5057136;28;20045;-55
2021/12/10 12:12:29;;;;;;;10.38;5.60;;;3.60;99.90;;;;;;5049840;28;20120;-56
2021/12/10 12:15:14;;;;;;;9.90;5.38;;;3.60;99.90;;;;;;5031659;28;20088;-57
2021/12/10 12:17:43;;;;;;;11.93;5.18;;;3.60;99.90;;;;;;5068608;28;20139;-56
2021/12/10 12:20:31;;;;;;;8.80;5.50;;;3.40;99.90;;;;;;5050200;28;20135;-56
2021/12/10 12:25:56;;;;;;;12.88;4.80;;;3.40;99.90;;;;;;5057335;28;20124;-56
2021/12/10 12:28:24;;;;;;;7.05;4.47;;;3.40;99.90;;;;;;5066624;28;20036;-56
2021/12/10 12:31:00;;;;;;;7.35;4.45;;;3.40;99.90;;;;;;5068427;28;20490;-56
2021/12/10 12:33:31;;;;;;;10.40;4.97;;;3.50;99.90;;;;;;5067723;28;20049;-56
2021/12/10 12:35:56;;;;;;;9.38;5.10;;;3.40;99.90;;;;;;5067919;28;20467;-56
2021/12/10 12:38:29;;;;;;;10.52;4.93;;;3.40;99.90;;;;;;5038957;28;20045;-55
2021/12/10 12:41:13;;;;;;;8.55;4.88;;;3.40;99.90;;;;;;5049508;28;20053;-56
2021/12/10 12:43:42;;;;;;;10.15;5.75;;;3.30;99.90;;;;;;5041944;28;20490;-56
2021/12/10 12:46:10;;;;;;;10.85;4.88;;;3.30;99.90;;;;;;5032898;28;20045;-56
2021/12/10 12:48:51;;;;;;;7.35;4.78;;;1.40;99.90;;;;;;5061075;28;20390;-57
2021/12/10 12:51:20;;;;;;;8.63;5.15;;;3.30;99.90;;;;;;5069310;28;20041;-56
2021/12/10 12:53:47;;;;;;;12.18;5.07;;;3.30;99.90;;;;;;5065181;28;20048;-56
2021/12/10 12:56:15;;;;;;;10.48;4.68;;;3.30;99.90;;;;;;5066045;28;20036;-56
2021/12/10 12:58:54;;;;;;;14.82;6.85;;;3.10;99.90;;;;;;5071209;28;20074;-56
2021/12/10 13:01:22;;;;;;;14.55;6.75;;;3.00;99.90;;;;;;5071231;28;20466;-56
2021/12/10 13:03:54;;;;;;;13.73;6.75;;;3.20;99.90;;;;;;5055627;28;20041;-56
2021/12/10 13:06:25;;;;;;;16.50;6.50;;;3.30;99.90;;;;;;5033289;28;20681;-56
2021/12/10 13:09:15;;;;;;;16.67;6.35;;;3.20;99.90;;;;;;5065866;28;20178;-56